Time;durP1;ratioP1;P1;durP2;ratioP2;P2;SDS_P1;SDS_P2;PMS_P1;PMS_P2;Temp;Humidity;BMP_temperature;BMP_pressure;BME280_temperature;BME280_humidity;BME280_pressure;Samples;Min_cycle;Max_cycle;Signal;HPM_P1;HPM_P2
2024/01/28 00:01:51;;;;;;;18.30;8.50;;;;;;;28.78;59.76;101492.81;5049718;28;68992;-40
2024/01/28 00:04:21;;;;;;;13.38;9.43;;;;;;;28.83;60.47;101503.84;5026619;28;66267;-42
2024/01/28 00:06:52;;;;;;;19.02;10.00;;;;;;;28.80;60.84;101495.28;5023628;28;69467;-39
2024/01/28 00:09:22;;;;;;;13.68;8.90;;;;;;;28.89;60.22;101510.34;5020159;28;66362;-39
2024/01/28 00:11:53;;;;;;;10.27;9.00;;;;;;;28.84;60.83;101486.63;5034907;28;70223;-40
2024/01/28 00:14:23;;;;;;;10.95;9.10;;;;;;;28.94;60.89;101508.72;5029403;28;66598;-41
2024/01/28 00:16:54;;;;;;;12.05;9.30;;;;;;;28.94;60.93;101507.91;5040750;28;70170;-41
2024/01/28 00:19:24;;;;;;;13.82;10.45;;;;;;;28.88;60.65;101506.81;5051564;28;66564;-40
2024/01/28 00:21:55;;;;;;;10.82;9.82;;;;;;;28.90;59.72;101510.16;5050231;28;70308;-42
2024/01/28 00:24:27;;;;;;;20.00;10.95;;;;;;;28.96;59.63;101517.47;5031625;28;66402;-41
2024/01/28 00:26:58;;;;;;;18.02;10.45;;;;;;;29.05;59.43;101530.91;5029603;28;69807;-39
2024/01/28 00:29:31;;;;;;;15.77;10.05;;;;;;;29.05;59.86;101537.13;5032051;28;66425;-39
2024/01/28 00:32:02;;;;;;;12.77;10.27;;;;;;;29.12;59.50;101543.44;5041153;28;69486;-38
2024/01/28 00:34:33;;;;;;;14.27;10.20;;;;;;;29.13;59.38;101549.69;5031274;28;65877;-39
2024/01/28 00:37:04;;;;;;;15.80;11.48;;;;;;;29.15;59.10;101550.34;5028681;28;70516;-40
2024/01/28 00:39:35;;;;;;;17.95;10.95;;;;;;;29.13;59.12;101557.78;5031074;28;66926;-39
2024/01/28 00:42:06;;;;;;;26.63;11.23;;;;;;;29.12;60.17;101564.22;5043882;28;70330;-40
2024/01/28 00:44:36;;;;;;;44.75;19.92;;;;;;;29.22;60.04;101570.13;5045436;28;66099;-39
2024/01/28 00:47:07;;;;;;;72.13;37.67;;;;;;;29.23;60.20;101571.00;5059492;28;70010;-41
2024/01/28 00:49:37;;;;;;;68.95;37.03;;;;;;;29.22;60.01;101570.13;5043620;28;65746;-41
2024/01/28 00:52:08;;;;;;;64.88;34.30;;;;;;;29.25;59.78;101569.75;5025053;28;69905;-40
2024/01/28 00:54:38;;;;;;;58.70;29.48;;;;;;;29.25;59.24;101575.16;5041156;28;65829;-39
2024/01/28 00:57:09;;;;;;;50.30;25.60;;;;;;;29.18;59.20;101563.44;5055155;28;70760;-39
2024/01/28 00:59:40;;;;;;;39.63;22.58;;;;;;;29.27;59.57;101578.50;5039501;28;66247;-39
2024/01/28 01:02:10;;;;;;;32.38;20.23;;;;;;;29.37;59.45;101587.13;5045943;28;69762;-39
2024/01/28 01:04:41;;;;;;;35.30;19.02;;;;;;;29.35;59.91;101586.47;5035901;28;66179;-38
2024/01/28 01:07:12;;;;;;;32.10;16.42;;;;;;;29.34;59.50;101590.22;5031316;28;70336;-48
2024/01/28 01:09:42;;;;;;;29.45;16.98;;;;;;;29.34;59.62;101584.00;5026012;28;66220;-39
2024/01/28 01:12:13;;;;;;;28.15;16.45;;;;;;;29.34;59.69;101590.22;5038445;28;70101;-40
2024/01/28 01:14:43;;;;;;;21.10;15.18;;;;;;;29.34;59.46;101592.09;5051841;28;65818;-39
2024/01/28 01:17:14;;;;;;;28.08;14.68;;;;;;;29.42;59.41;101607.31;5045074;28;71021;-38
2024/01/28 01:19:45;;;;;;;30.77;15.60;;;;;;;29.46;59.52;101609.47;5042044;28;66940;-40
2024/01/28 01:22:16;;;;;;;22.83;14.25;;;;;;;29.44;59.23;101605.28;5057339;28;70867;-38
2024/01/28 01:24:46;;;;;;;19.95;13.73;;;;;;;29.46;59.33;101611.34;5058898;28;65742;-39
2024/01/28 01:27:17;;;;;;;22.25;14.60;;;;;;;29.40;59.88;101608.38;5023656;28;70557;-38
2024/01/28 01:29:48;;;;;;;18.45;13.50;;;;;;;29.46;60.02;101622.16;5028532;28;66170;-39
2024/01/28 01:32:18;;;;;;;19.92;13.38;;;;;;;29.54;59.77;101619.31;5031003;28;70304;-38
2024/01/28 01:34:49;;;;;;;19.20;13.00;;;;;;;29.58;59.39;101626.81;5039932;28;65941;-41
2024/01/28 01:37:20;;;;;;;18.23;13.60;;;;;;;29.55;59.47;101612.88;5040661;28;69861;-40
2024/01/28 01:39:50;;;;;;;16.30;12.70;;;;;;;29.64;59.18;101625.25;5036421;28;65987;-41
2024/01/28 01:42:21;;;;;;;20.90;12.38;;;;;;;29.55;58.90;101612.88;5053690;28;70724;-40
2024/01/28 01:44:51;;;;;;;32.70;12.68;;;;;;;29.62;59.18;101632.69;5040834;28;65730;-41
2024/01/28 01:47:23;;;;;;;15.38;12.32;;;;;;;29.68;58.63;101629.25;5052378;28;70776;-41
2024/01/28 01:49:54;;;;;;;16.13;12.13;;;;;;;29.73;59.03;101626.81;5041267;28;66520;-40
2024/01/28 01:52:25;;;;;;;18.38;11.38;;;;;;;29.75;58.73;101629.28;5045766;28;70013;-41
2024/01/28 01:54:56;;;;;;;16.98;11.73;;;;;;;29.74;58.77;101617.66;5042414;28;65911;-40
2024/01/28 01:57:27;;;;;;;21.58;11.75;;;;;;;29.76;58.11;101630.97;5044525;28;70039;-47
2024/01/28 01:59:58;;;;;;;30.77;12.25;;;;;;;29.67;57.35;101616.75;5066392;28;66282;-39
2024/01/28 02:02:28;;;;;;;21.25;12.20;;;;;;;29.66;54.91;101631.31;5039666;28;70332;-40
2024/01/28 02:04:59;;;;;;;27.05;12.55;;;;;;;29.62;54.34;101636.22;5060428;28;66484;-38
2024/01/28 02:07:30;;;;;;;23.40;11.88;;;;;;;29.57;55.08;101627.03;5045829;28;70100;-39
2024/01/28 02:10:03;;;;;;;23.52;13.65;;;;;;;29.64;55.21;101636.06;5058912;28;66519;-39
2024/01/28 02:12:33;;;;;;;28.05;12.52;;;;;;;29.59;55.67;101638.50;5028408;28;70665;-39
2024/01/28 02:15:11;;;;;;;29.20;12.13;;;;;;;29.49;56.26;101619.06;5020658;28;65801;-41
2024/01/28 02:17:42;;;;;;;18.92;12.15;;;;;;;29.58;55.99;101634.94;5035733;28;70261;-40
2024/01/28 02:20:13;;;;;;;34.30;12.43;;;;;;;29.58;56.59;101621.41;5024248;28;65487;-38
2024/01/28 02:22:44;;;;;;;12.65;10.52;;;;;;;29.68;56.47;101628.41;5065139;28;69656;-40
2024/01/28 02:25:15;;;;;;;16.08;10.95;;;;;;;29.69;56.96;101636.31;5059885;28;65825;-39
2024/01/28 02:27:46;;;;;;;16.77;10.35;;;;;;;29.62;56.95;101608.38;5040943;28;71168;-40
2024/01/28 02:30:17;;;;;;;16.17;11.50;;;;;;;29.74;56.88;101627.63;5026209;28;66002;-38
2024/01/28 02:32:51;;;;;;;17.25;10.77;;;;;;;29.78;56.68;101624.34;5044533;28;70936;-39
2024/01/28 02:35:22;;;;;;;10.90;9.85;;;;;;;29.71;56.82;101607.22;5027611;28;65440;-41
2024/01/28 02:37:53;;;;;;;15.75;9.95;;;;;;;29.84;57.12;101617.31;5038837;28;69556;-40
2024/01/28 02:40:23;;;;;;;16.85;10.68;;;;;;;29.86;56.94;101619.81;5051077;28;66168;-43
2024/01/28 02:42:54;;;;;;;15.52;10.20;;;;;;;29.89;57.08;101619.41;5056359;28;70585;-39
2024/01/28 02:45:25;;;;;;;10.93;9.93;;;;;;;29.91;56.88;101620.06;5042654;28;65083;-39
2024/01/28 02:47:56;;;;;;;12.00;10.60;;;;;;;29.92;57.07;101610.91;5036465;28;69858;-41
2024/01/28 02:50:26;;;;;;;11.15;10.05;;;;;;;29.99;57.29;101615.34;5038690;28;66749;-40
2024/01/28 02:52:57;;;;;;;13.35;10.55;;;;;;;30.00;57.35;101599.94;5024784;28;70138;-39
2024/01/28 02:55:27;;;;;;;10.55;9.77;;;;;;;30.04;57.58;101601.25;5047692;28;66608;-40
2024/01/28 02:57:58;;;;;;;10.50;9.52;;;;;;;29.99;57.32;101587.47;5039889;28;70211;-39
2024/01/28 03:00:29;;;;;;;10.98;9.85;;;;;;;30.04;57.06;101593.13;5037405;28;65640;-38
2024/01/28 03:02:59;;;;;;;10.38;9.45;;;;;;;30.10;57.65;101594.19;5030623;28;70076;-39
2024/01/28 03:05:30;;;;;;;10.80;9.80;;;;;;;30.02;57.42;101570.84;5044600;28;65474;-43
2024/01/28 03:08:01;;;;;;;10.15;9.20;;;;;;;30.14;57.09;101590.06;5053836;28;69363;-39
2024/01/28 03:10:31;;;;;;;11.02;9.95;;;;;;;30.07;56.98;101568.38;5047991;28;67465;-40
2024/01/28 03:13:02;;;;;;;12.98;10.40;;;;;;;30.09;57.14;101571.72;5050285;28;70082;-40
2024/01/28 03:15:32;;;;;;;11.27;10.05;;;;;;;30.19;57.47;101577.59;5025554;28;66024;-39
2024/01/28 03:18:03;;;;;;;15.18;11.65;;;;;;;30.15;57.06;101575.50;5024211;28;69407;-40
2024/01/28 03:20:34;;;;;;;23.60;11.95;;;;;;;30.16;57.04;101566.34;5049359;28;66506;-42
2024/01/28 03:23:05;;;;;;;17.25;11.98;;;;;;;30.17;57.16;101574.28;5040194;28;70166;-38
2024/01/28 03:25:35;;;;;;;16.55;11.82;;;;;;;30.09;57.47;101560.91;5042780;28;67321;-39
2024/01/28 03:28:06;;;;;;;13.48;11.25;;;;;;;30.14;57.41;101563.81;5066692;28;70611;-38
2024/01/28 03:30:37;;;;;;;13.88;11.60;;;;;;;30.16;57.60;101559.06;5043185;28;66343;-40
2024/01/28 03:33:08;;;;;;;19.90;12.07;;;;;;;30.09;57.74;101552.78;5037056;28;70410;-40
2024/01/28 03:35:39;;;;;;;12.77;11.20;;;;;;;30.13;57.51;101551.34;5034481;28;66144;-41
2024/01/28 03:38:09;;;;;;;16.02;11.75;;;;;;;30.06;57.96;101539.63;5022041;28;69907;-39
2024/01/28 03:40:40;;;;;;;16.55;11.35;;;;;;;30.18;57.98;101554.28;5023364;28;65750;-40
2024/01/28 03:43:11;;;;;;;16.42;10.85;;;;;;;30.16;58.54;101540.13;5052349;28;70196;-39
2024/01/28 03:45:41;;;;;;;13.93;10.82;;;;;;;30.23;58.82;101548.31;5042127;28;65430;-40
2024/01/28 03:48:12;;;;;;;20.13;10.48;;;;;;;30.25;58.73;101544.34;5038997;28;69452;-39
2024/01/28 03:50:43;;;;;;;19.52;11.13;;;;;;;30.26;58.95;101537.91;5032056;28;65998;-39
2024/01/28 03:53:14;;;;;;;13.13;10.70;;;;;;;30.32;58.28;101538.16;5036363;28;70230;-41
2024/01/28 03:55:45;;;;;;;13.30;9.93;;;;;;;30.26;57.85;101524.38;5030640;28;66964;-40
2024/01/28 03:58:16;;;;;;;12.27;10.55;;;;;;;30.30;58.42;101534.81;5033917;28;70948;-41
2024/01/28 04:00:47;;;;;;;15.18;10.40;;;;;;;30.32;58.36;101530.88;5048860;28;66323;-40
2024/01/28 04:03:18;;;;;;;11.00;9.23;;;;;;;30.28;58.19;101516.91;5020400;28;70927;-39
2024/01/28 04:05:49;;;;;;;12.13;9.83;;;;;;;30.32;58.04;101516.50;5026920;28;65596;-39
2024/01/28 04:08:21;;;;;;;17.00;10.05;;;;;;;30.24;58.04;101502.09;5044958;28;68571;-40
2024/01/28 04:10:51;;;;;;;10.95;9.70;;;;;;;30.38;58.31;101521.09;5036033;28;66717;-40
2024/01/28 04:13:22;;;;;;;13.63;9.82;;;;;;;30.39;58.21;101511.94;5047820;28;69971;-40
2024/01/28 04:15:52;;;;;;;17.88;10.32;;;;;;;30.30;58.48;101486.09;5051685;28;67046;-41
2024/01/28 04:18:23;;;;;;;16.63;9.18;;;;;;;30.43;58.15;101494.28;5054445;28;70646;-40
2024/01/28 04:20:54;;;;;;;17.77;10.40;;;;;;;30.44;57.94;101494.06;5047991;28;65372;-41
2024/01/28 04:23:24;;;;;;;11.73;10.25;;;;;;;30.35;57.89;101480.91;5044280;28;69672;-40
2024/01/28 04:25:55;;;;;;;13.02;9.43;;;;;;;30.49;57.76;101485.34;5029949;28;65782;-41
2024/01/28 04:28:25;;;;;;;10.25;9.25;;;;;;;30.50;57.71;101484.28;5023601;28;69998;-41
2024/01/28 04:30:58;;;;;;;24.70;9.88;;;;;;;30.48;58.33;101470.97;5029322;28;66028;-41
2024/01/28 04:33:29;;;;;;;16.83;9.82;;;;;;;30.50;57.81;101459.91;5038287;28;69930;-41
2024/01/28 04:36:00;;;;;;;12.75;9.30;;;;;;;30.55;57.84;101472.84;5043455;28;65442;-40
2024/01/28 04:38:31;;;;;;;12.98;8.95;;;;;;;30.56;57.68;101469.91;5027608;28;68620;-41
2024/01/28 04:41:02;;;;;;;13.60;9.25;;;;;;;30.58;57.30;101467.84;5030318;28;66233;-41
2024/01/28 04:43:32;;;;;;;10.13;8.57;;;;;;;30.64;57.24;101456.19;5036747;28;70257;-40
2024/01/28 04:46:03;;;;;;;8.73;7.85;;;;;;;30.68;57.48;101451.22;5025784;28;67185;-41
2024/01/28 04:48:33;;;;;;;8.48;7.80;;;;;;;30.70;57.77;101439.16;5026895;28;69782;-40
2024/01/28 04:51:05;;;;;;;7.63;7.10;;;;;;;30.80;57.63;101432.53;5041881;28;66433;-40
2024/01/28 04:53:35;;;;;;;9.07;8.20;;;;;;;30.77;57.64;101422.06;5033843;28;69911;-39
2024/01/28 04:56:06;;;;;;;9.82;7.60;;;;;;;30.89;57.22;101420.44;5035017;28;65236;-41
2024/01/28 04:58:37;;;;;;;11.23;8.15;;;;;;;30.94;57.21;101424.19;5057765;28;70249;-40
2024/01/28 05:01:08;;;;;;;10.83;7.40;;;;;;;30.97;57.17;101417.53;5028649;28;65104;-45
2024/01/28 05:03:39;;;;;;;7.00;6.47;;;;;;;30.98;56.90;101408.38;5041336;28;70038;-40
2024/01/28 05:06:10;;;;;;;8.00;7.35;;;;;;;31.04;57.19;101415.66;5028104;28;66525;-40
2024/01/28 05:08:40;;;;;;;9.45;6.97;;;;;;;31.07;57.01;101411.69;5054458;28;69525;-39
2024/01/28 05:11:11;;;;;;;9.73;6.55;;;;;;;31.09;56.46;101404.16;5030876;28;66376;-41
2024/01/28 05:13:41;;;;;;;9.43;6.78;;;;;;;31.08;56.59;101387.09;5055656;28;70253;-40
2024/01/28 05:16:12;;;;;;;7.40;6.80;;;;;;;31.14;56.32;101391.66;5022761;28;66263;-42
2024/01/28 05:18:43;;;;;;;12.65;6.95;;;;;;;31.11;56.61;101375.81;5023934;28;70872;-40
2024/01/28 05:21:14;;;;;;;6.97;6.23;;;;;;;31.15;56.33;101382.50;5049323;28;66291;-41
2024/01/28 05:23:46;;;;;;;11.30;6.18;;;;;;;31.20;56.64;101379.16;5070343;28;70094;-39
2024/01/28 05:26:17;;;;;;;7.30;6.65;;;;;;;31.16;56.35;101351.66;5043832;28;66080;-39
2024/01/28 05:28:47;;;;;;;6.63;5.93;;;;;;;31.22;56.61;101357.28;5034847;28;70163;-40
2024/01/28 05:31:18;;;;;;;6.25;5.75;;;;;;;31.25;56.28;101354.97;5037857;28;66532;-41
2024/01/28 05:33:49;;;;;;;6.95;6.30;;;;;;;31.19;56.14;101341.44;5052902;28;69218;-40
2024/01/28 05:36:19;;;;;;;6.85;6.25;;;;;;;31.21;56.12;101331.22;5041485;28;66417;-41
2024/01/28 05:38:50;;;;;;;7.03;6.32;;;;;;;31.30;56.13;101340.78;5038195;28;69554;-40
2024/01/28 05:41:20;;;;;;;7.57;6.05;;;;;;;31.26;56.34;101321.41;5062404;28;65304;-40
2024/01/28 05:43:51;;;;;;;7.60;6.53;;;;;;;31.30;56.02;101319.94;5032926;28;70709;-41
2024/01/28 05:46:21;;;;;;;11.02;6.25;;;;;;;31.35;56.21;101311.16;5037889;28;65688;-40
2024/01/28 05:48:53;;;;;;;7.40;6.80;;;;;;;31.36;56.21;101319.09;5032644;28;69784;-40
2024/01/28 05:51:25;;;;;;;8.65;6.32;;;;;;;31.36;56.21;101307.44;5048501;28;66618;-41
2024/01/28 05:53:55;;;;;;;;;;;;;;;31.14;55.64;101304.13;5026673;28;69607;-41
2024/01/28 05:56:26;;;;;;;8.48;6.43;;;;;;;31.38;55.84;101299.91;5026746;28;65510;-41
2024/01/28 05:58:56;;;;;;;6.97;6.35;;;;;;;31.38;55.92;101294.50;5035642;28;70515;-42
2024/01/28 06:01:27;;;;;;;7.30;6.70;;;;;;;31.45;56.04;101295.28;5058375;28;66220;-40
2024/01/28 06:03:57;;;;;;;8.98;6.63;;;;;;;31.44;56.16;101277.38;5069545;28;70588;-41
2024/01/28 06:06:28;;;;;;;7.00;6.43;;;;;;;31.35;56.11;101256.94;5037444;28;66239;-41
2024/01/28 06:08:58;;;;;;;6.60;6.05;;;;;;;31.45;56.09;101262.75;5038814;28;69257;-40
2024/01/28 06:11:29;;;;;;;6.10;5.60;;;;;;;31.46;55.90;101259.03;5029810;28;66350;-41
2024/01/28 06:13:59;;;;;;;7.32;6.60;;;;;;;31.54;56.22;101264.19;5039899;28;70178;-42
2024/01/28 06:16:30;;;;;;;6.50;5.90;;;;;;;31.55;55.76;101260.44;5041393;28;66740;-40
2024/01/28 06:19:01;;;;;;;7.60;6.90;;;;;;;31.55;56.23;101252.28;5034857;28;70409;-41
2024/01/28 06:21:31;;;;;;;8.57;6.40;;;;;;;31.59;55.92;101248.13;5031696;28;65063;-40
2024/01/28 06:24:02;;;;;;;7.40;6.70;;;;;;;31.61;55.88;101237.88;5024750;28;69796;-42
2024/01/28 06:26:36;;;;;;;10.48;6.30;;;;;;;31.60;55.88;101225.38;5023186;28;66079;-40
2024/01/28 06:29:08;;;;;;;7.05;6.30;;;;;;;31.64;56.03;101227.63;5021957;28;69934;-40
2024/01/28 06:31:40;;;;;;;6.47;5.85;;;;;;;31.66;55.84;101214.69;5037780;28;66604;-41
2024/01/28 06:34:10;;;;;;;7.80;7.20;;;;;;;31.67;55.75;101216.34;5028469;28;69693;-40
2024/01/28 06:36:41;;;;;;;10.40;6.63;;;;;;;31.69;55.74;101209.66;5036774;28;65179;-40
2024/01/28 06:39:11;;;;;;;10.30;5.95;;;;;;;31.71;55.78;101206.75;5009690;28;68830;-41
2024/01/28 06:41:43;;;;;;;9.23;6.43;;;;;;;31.69;55.68;101187.13;5027583;28;66470;-43
2024/01/28 06:44:14;;;;;;;6.88;5.82;;;;;;;31.69;55.84;101184.44;5021294;28;70485;-39
2024/01/28 06:46:45;;;;;;;7.85;7.05;;;;;;;31.76;55.78;101187.91;5038258;28;65346;-37
2024/01/28 06:49:15;;;;;;;7.07;6.57;;;;;;;31.80;55.56;101189.16;5037378;28;70420;-40
2024/01/28 06:51:48;;;;;;;6.53;5.97;;;;;;;31.82;55.63;101192.47;5039020;28;66272;-40
2024/01/28 06:54:19;;;;;;;7.50;6.90;;;;;;;31.82;55.83;101159.94;5025898;28;69780;-40
2024/01/28 06:56:51;;;;;;;7.18;6.57;;;;;;;31.69;55.65;101138.31;5025777;28;66258;-40
2024/01/28 06:59:23;;;;;;;6.90;6.40;;;;;;;31.78;55.66;101148.66;5051490;28;70032;-40
2024/01/28 07:01:54;;;;;;;6.55;6.05;;;;;;;31.88;55.67;101169.91;5034101;28;65557;-40
2024/01/28 07:04:25;;;;;;;9.18;6.70;;;;;;;31.89;55.61;101160.69;5033585;28;70849;-39
2024/01/28 07:06:56;;;;;;;7.10;6.50;;;;;;;31.89;55.47;101155.28;5030256;28;66160;-40
2024/01/28 07:09:27;;;;;;;7.60;6.05;;;;;;;31.86;55.39;101134.00;5016646;28;70096;-41
2024/01/28 07:11:57;;;;;;;6.95;6.45;;;;;;;31.99;55.59;101143.97;5036098;28;66514;-39
2024/01/28 07:14:28;;;;;;;7.40;6.80;;;;;;;31.98;55.58;101132.28;5048332;28;70480;-41
2024/01/28 07:16:59;;;;;;;7.70;6.55;;;;;;;32.04;55.67;101131.41;5013703;28;65760;-41
2024/01/28 07:19:30;;;;;;;7.38;6.70;;;;;;;32.04;55.39;101131.41;5051066;28;69252;-40
2024/01/28 07:22:01;;;;;;;7.17;6.40;;;;;;;32.07;55.78;101126.56;5037156;28;65807;-40
2024/01/28 07:24:31;;;;;;;7.07;6.50;;;;;;;32.08;55.47;101115.50;5045324;28;71251;-40
2024/01/28 07:27:02;;;;;;;6.88;6.28;;;;;;;32.14;55.19;101113.75;5033667;28;66965;-40
2024/01/28 07:29:33;;;;;;;7.75;6.90;;;;;;;32.15;55.31;101109.97;5036373;28;69809;-41
2024/01/28 07:32:04;;;;;;;8.80;6.40;;;;;;;32.13;55.17;101095.84;5027004;28;66520;-42
2024/01/28 07:34:34;;;;;;;7.40;6.65;;;;;;;32.21;55.27;101109.13;5030235;28;71312;-41
2024/01/28 07:37:06;;;;;;;6.38;5.97;;;;;;;32.08;55.38;101082.09;5029553;28;65959;-40
2024/01/28 07:39:36;;;;;;;7.65;6.82;;;;;;;32.29;55.19;101106.13;5052449;28;71071;-40
2024/01/28 07:42:07;;;;;;;6.55;6.15;;;;;;;32.10;55.14;101063.72;5037378;28;65330;-41
2024/01/28 07:44:37;;;;;;;6.85;6.35;;;;;;;32.34;55.22;101100.81;5043993;28;70468;-40
2024/01/28 07:47:08;;;;;;;6.68;6.07;;;;;;;32.27;55.09;101075.63;5045053;28;66057;-39
2024/01/28 07:49:38;;;;;;;6.35;5.95;;;;;;;32.40;54.97;101094.50;5036290;28;70239;-40
2024/01/28 07:52:10;;;;;;;6.63;6.13;;;;;;;32.42;55.16;101092.38;5022385;28;65871;-40
2024/01/28 07:54:40;;;;;;;6.82;6.20;;;;;;;32.47;55.03;101081.69;5026537;28;68894;-40
2024/01/28 07:57:11;;;;;;;6.95;6.35;;;;;;;32.51;54.89;101081.25;5025676;28;65987;-40
2024/01/28 07:59:41;;;;;;;7.43;6.82;;;;;;;32.56;54.98;101078.69;5033456;28;70512;-41
2024/01/28 08:02:11;;;;;;;6.82;5.93;;;;;;;32.61;54.83;101076.13;5028600;28;66382;-39
2024/01/28 08:04:46;;;;;;;6.88;6.28;;;;;;;32.31;54.58;101019.81;5047055;28;70166;-39
2024/01/28 08:07:17;;;;;;;7.18;6.30;;;;;;;32.33;54.61;101019.63;5033703;28;66262;-40
2024/01/28 08:09:48;;;;;;;6.90;6.22;;;;;;;32.67;54.78;101076.03;5038205;28;70278;-40
2024/01/28 08:12:18;;;;;;;8.02;7.30;;;;;;;32.52;53.79;101059.31;5041107;28;66560;-38
2024/01/28 08:14:49;;;;;;;7.50;6.80;;;;;;;32.47;53.86;101065.41;5024463;28;70498;-38
2024/01/28 08:17:22;;;;;;;7.75;6.97;;;;;;;32.53;54.33;101063.66;5034428;28;66681;-39
2024/01/28 08:19:52;;;;;;;9.88;7.50;;;;;;;32.47;54.12;101059.97;5030196;28;70672;-39
2024/01/28 08:22:24;;;;;;;9.27;7.65;;;;;;;32.46;54.14;101058.34;5044588;28;66685;-40
2024/01/28 08:24:55;;;;;;;14.63;6.65;;;;;;;32.49;54.16;101063.31;5027514;28;69246;-39
2024/01/28 08:27:25;;;;;;;7.60;7.00;;;;;;;32.51;54.47;101060.34;5036247;28;65689;-38
2024/01/28 08:29:56;;;;;;;13.75;7.63;;;;;;;32.52;54.17;101061.19;5044811;28;70597;-39
2024/01/28 08:32:26;;;;;;;9.63;7.32;;;;;;;32.13;54.56;100993.53;5040838;28;66687;-40
2024/01/28 08:34:57;;;;;;;7.72;6.90;;;;;;;32.57;54.49;101058.59;5024402;28;69896;-39
2024/01/28 08:37:28;;;;;;;9.05;6.63;;;;;;;32.59;54.23;101056.50;5056843;28;65926;-40
2024/01/28 08:39:58;;;;;;;10.65;7.03;;;;;;;32.52;54.55;101040.28;5048565;28;70152;-41
2024/01/28 08:42:30;;;;;;;7.57;6.95;;;;;;;32.65;54.39;101066.44;5054838;28;64542;-40
2024/01/28 08:45:02;;;;;;;7.15;6.65;;;;;;;32.68;54.49;101061.41;5054449;28;70304;-41
2024/01/28 08:47:33;;;;;;;7.07;6.57;;;;;;;32.69;54.24;101052.19;5049618;28;65127;-40
2024/01/28 08:50:04;;;;;;;9.23;6.60;;;;;;;32.75;54.35;101058.59;5061873;28;69560;-40
2024/01/28 08:52:35;;;;;;;7.55;6.85;;;;;;;32.74;54.27;101054.22;5042641;28;66964;-40
2024/01/28 08:55:05;;;;;;;11.40;7.00;;;;;;;32.82;54.40;101056.63;5045211;28;69329;-39
2024/01/28 08:57:36;;;;;;;8.50;7.00;;;;;;;32.83;54.17;101058.28;5033940;28;65758;-39
2024/01/28 09:00:11;;;;;;;7.88;7.15;;;;;;;32.86;54.30;101057.81;5034979;28;70247;-41
2024/01/28 09:02:42;;;;;;;8.55;7.75;;;;;;;32.87;54.31;101047.78;5039106;28;66237;-39
2024/01/28 09:05:12;;;;;;;9.25;6.65;;;;;;;32.90;54.07;101053.59;5029576;28;70843;-39
2024/01/28 09:07:45;;;;;;;9.27;6.40;;;;;;;32.90;54.22;101053.59;5038624;28;66879;-41
2024/01/28 09:10:16;;;;;;;16.63;7.55;;;;;;;32.97;52.08;101058.09;5037837;28;68989;-41
2024/01/28 09:12:47;;;;;;;14.80;7.57;;;;;;;32.96;52.12;101045.56;5030257;28;66047;-41
2024/01/28 09:15:18;;;;;;;8.38;7.18;;;;;;;33.13;51.93;101071.06;5047822;28;70083;-39
2024/01/28 09:17:49;;;;;;;19.55;8.38;;;;;;;33.18;51.96;101068.47;5028883;28;65075;-39
2024/01/28 09:20:20;;;;;;;15.13;7.30;;;;;;;33.19;52.10;101075.59;5059414;28;69783;-41
2024/01/28 09:22:50;;;;;;;12.77;7.22;;;;;;;32.99;52.46;101034.22;5051630;28;66200;-39
2024/01/28 09:25:21;;;;;;;17.58;7.93;;;;;;;33.25;52.38;101082.81;5049461;28;70355;-38
2024/01/28 09:27:52;;;;;;;9.85;7.00;;;;;;;33.30;52.87;101087.56;5025982;28;65920;-39
2024/01/28 09:30:22;;;;;;;10.25;7.10;;;;;;;33.27;52.86;101079.88;5031336;28;69221;-39
2024/01/28 09:32:54;;;;;;;;;;;;;;;33.26;52.89;101106.19;5041918;28;66189;-39
2024/01/28 09:35:25;;;;;;;8.48;6.60;;;;;;;33.36;53.14;101100.22;5034220;28;69911;-39
2024/01/28 09:37:57;;;;;;;13.88;7.45;;;;;;;33.43;53.32;101106.38;5038174;28;66130;-39
2024/01/28 09:40:27;;;;;;;19.40;7.57;;;;;;;33.22;53.40;101075.13;5025749;28;70455;-41
2024/01/28 09:43:30;;;;;;;15.75;7.28;;;;;;;33.08;54.00;101074.47;5031597;28;66437;-39
2024/01/28 09:46:19;;;;;;;15.70;7.78;;;;;;;33.46;54.04;101121.38;5030057;28;71259;-39
2024/01/28 09:49:11;;;;;;;12.02;7.55;;;;;;;33.50;54.86;101138.91;5035605;28;67651;-40
2024/01/28 09:52:00;;;;;;;15.50;8.23;;;;;;;33.50;54.92;101138.91;5034276;28;70773;-41
2024/01/28 09:54:49;;;;;;;13.77;7.80;;;;;;;33.57;54.97;101145.09;5041574;28;67026;-41
2024/01/28 09:57:39;;;;;;;9.00;7.15;;;;;;;33.69;54.50;101143.25;5039485;28;71328;-40
2024/01/28 10:00:29;;;;;;;6.82;6.25;;;;;;;33.82;54.51;101153.09;5025901;28;66525;-40
2024/01/28 10:03:20;;;;;;;10.07;7.20;;;;;;;33.79;54.57;101143.53;5034595;28;71190;-39
2024/01/28 10:06:09;;;;;;;12.20;7.45;;;;;;;33.64;54.93;101156.72;5030325;28;67009;-40
2024/01/28 10:08:58;;;;;;;11.32;6.85;;;;;;;33.34;55.09;101130.34;5022605;28;70339;-39
2024/01/28 10:11:48;;;;;;;9.25;6.60;;;;;;;33.56;56.01;101176.09;5024911;28;67265;-37
2024/01/28 10:14:37;;;;;;;11.25;6.85;;;;;;;33.52;56.24;101174.88;5023583;28;70909;-39
2024/01/28 10:17:26;;;;;;;10.25;6.63;;;;;;;33.48;56.36;101185.38;5027424;28;66404;-39
2024/01/28 10:20:23;;;;;;;9.80;6.43;;;;;;;33.04;56.05;101118.63;5017227;28;71133;-39
2024/01/28 10:23:12;;;;;;;8.27;6.18;;;;;;;33.43;56.12;101181.69;5024791;28;67459;-40
2024/01/28 10:26:01;;;;;;;15.82;8.13;;;;;;;33.41;56.78;101195.53;5024143;28;71273;-44
2024/01/28 10:28:51;;;;;;;10.82;7.28;;;;;;;33.57;56.25;101194.06;5042401;28;67115;-39
2024/01/28 10:31:40;;;;;;;12.23;6.95;;;;;;;33.67;56.25;101194.34;5029638;28;70847;-40
2024/01/28 10:34:30;;;;;;;16.73;7.45;;;;;;;33.74;55.91;101200.53;5029247;28;67199;-41
2024/01/28 10:37:20;;;;;;;9.68;7.15;;;;;;;33.42;56.05;101133.81;5030415;28;70942;-41
2024/01/28 10:40:11;;;;;;;9.85;6.50;;;;;;;33.85;56.02;101207.06;5036346;28;66509;-41
2024/01/28 10:43:04;;;;;;;11.20;6.82;;;;;;;33.81;56.08;101201.22;5039380;28;70346;-39
2024/01/28 10:45:56;;;;;;;9.90;7.10;;;;;;;33.92;55.98;101212.41;5038181;28;67377;-39
2024/01/28 10:48:47;;;;;;;;;;;;;;;33.75;56.18;101215.78;5028672;28;70555;-39
2024/01/28 10:51:39;;;;;;;10.07;7.82;;;;;;;33.86;55.74;101216.88;5052242;27;67279;-45
2024/01/28 10:54:29;;;;;;;13.82;7.70;;;;;;;33.53;56.17;101149.38;5025639;28;71333;-40
2024/01/28 10:57:25;;;;;;;12.13;7.80;;;;;;;33.93;55.95;101224.94;5040685;28;66472;-40
2024/01/28 11:00:20;;;;;;;9.48;7.25;;;;;;;33.91;55.70;101221.63;5037994;28;70937;-40
2024/01/28 11:03:12;;;;;;;11.75;7.05;;;;;;;33.65;56.18;101191.00;5046562;28;67208;-41
2024/01/28 11:06:01;;;;;;;9.90;7.15;;;;;;;33.91;55.76;101240.69;5050620;28;71125;-39
2024/01/28 11:08:55;;;;;;;10.00;6.85;;;;;;;33.60;55.99;101193.63;5051746;28;66307;-39
2024/01/28 11:11:45;;;;;;;7.68;6.78;;;;;;;33.90;55.93;101247.16;5049502;28;70177;-41
2024/01/28 11:14:35;;;;;;;13.95;7.22;;;;;;;33.88;56.19;101243.84;5035474;28;67271;-41
2024/01/28 11:17:34;;;;;;;9.65;6.40;;;;;;;33.84;56.33;101257.09;5034033;28;70467;-40
2024/01/28 11:20:33;;;;;;;7.40;6.78;;;;;;;33.85;56.20;101255.19;5038770;28;66971;-41
2024/01/28 11:23:23;;;;;;;11.48;7.35;;;;;;;33.79;56.01;101262.38;5051892;28;70444;-40
2024/01/28 11:26:16;;;;;;;10.38;7.05;;;;;;;33.49;56.59;101213.38;5054613;28;66491;-40
2024/01/28 11:29:07;;;;;;;8.57;7.25;;;;;;;33.78;56.16;101264.28;5022456;28;70466;-40
2024/01/28 11:31:56;;;;;;;8.27;6.70;;;;;;;33.68;56.48;101265.91;5053844;28;67366;-40
2024/01/28 11:34:45;;;;;;;9.68;6.95;;;;;;;33.65;57.42;101277.25;5038988;28;71029;-41
2024/01/28 11:37:51;;;;;;;12.20;7.30;;;;;;;33.43;58.63;101279.59;5040877;28;66479;-39
2024/01/28 11:40:40;;;;;;;18.02;7.75;;;;;;;33.37;57.98;101284.88;5045985;28;71253;-40
2024/01/28 11:43:30;;;;;;;10.38;8.15;;;;;;;33.35;57.55;101278.84;5034909;28;66469;-41
2024/01/28 11:46:21;;;;;;;8.18;7.22;;;;;;;33.47;57.42;101292.50;5043968;28;71158;-41
2024/01/28 11:49:11;;;;;;;7.85;7.05;;;;;;;33.46;57.31;101293.56;5031049;28;67277;-40
2024/01/28 11:52:01;;;;;;;16.77;7.63;;;;;;;33.50;57.51;101292.06;5034566;28;71185;-40